Belle Mead, New Jersey
Current Conditions -  °F | °C
As of 12:53 AM on Thursday 27 Nov 2014 (Local Time) from KSMQ Reporting Station
Overcast Overcast  
Wind Chill: 32°   Ceiling: 6000
Heat Index: 36°   Visibility: 10mi
Dew Point: 30°   Wind: 5mph
Humidity: 79%   Direction: NA
Pressure: 29.86"   Gusts: NA
Location:  40.47°N, 74.66°W
Report Text: KSMQ 270553Z AUTO VRB04KT 10SM BKN060 OVC075 02/M01 A2986 RMK AO2 SLP114 60030 T00221011 10028 20017 51011
Loading
Personal Weather Stations






























Interactive Weather Map New forecast layout! Learn more

10-Day Weather Forecast

Advertisements
Track Severe Weather on mobile